Open Full Screen Window  High Contrast Mode
Wind Gusting 19 knots
08
February 25, 2018 4:59 AM EST
Weather Information
Wind Direction
  220 °
Wind Speed
  08 kt (9 mph)
Wind Gust
  19 kt (22 mph)
Altimeter
29.74 in
Visibility
10 SM
Temperature
15° C
59° F
Dewpoint
13° C
55° F
Humidity
88%
1hr Rain Fall
00.00 in.
24hr Rain Fall
01.52 in.
Sky Condition
Overcast @ 2,300 ft
Broken @ 1,500 ft
MVFR

METAR KI69 250959Z AUTO 22008G19KT 10SM BKN015 OVC023 15/13 A2974 RMK AO2 T01520130

*Background is not an actual portrayal of the airport.